Franklinville, New York
Current Conditions -  °F | °C
As of 3:15 AM on Monday 26 Jan 2015 (Local Time) from KOLE Reporting Station
Light Snow Light Snow  
Wind Chill: -8°   Ceiling: 5000
Heat Index:   Visibility: 3mi
Dew Point:   Wind: 14mph
Humidity: 92%   Direction: 90°E
Pressure: 29.82"   Gusts: NA
Location:  42.34°N, 78.46°W
Report Text: KOLE 260815Z AUTO 09012KT 3SM -SN SCT029 BKN050 OVC075 M13/M14 A2982 RMK AO2
Loading
Personal Weather Stations






























Interactive Weather Map New forecast layout! Learn more

10-Day Weather Forecast

Advertisements
Track Severe Weather on mobile